Flight Track Log - Related Links

Times and Time Zones

All times are in EDT time to prevent confusion due to time zone crossing. See the AAL1862 flight status page for this flight to view local times or setup timezone preferences in your user account.

Time Position Orientation Groundspeed Altitude Reporting Facility
EDT Latitude Longitude Course Direction KTS MPH feet Rate Location/Type
Sun 12:09:39 PM 35.1828 -80.9511 323° Northwest 171 197 1,900  Level Atlanta Center
Sun 12:10:28 PM 35.1433 -80.9528 182° South 197 227 2,900 1,558 Climbing Atlanta Center
Sun 12:11:23 PM 35.0919 -80.9903 211° Southwest 277 319 4,600 2,379 Climbing Atlanta Center
Sun 12:12:24 PM 35.0922 -81.0842 270° West 278 320 7,500 2,462 Climbing Atlanta Center
Sun 12:12:41 PM 35.0931 -81.1197 272° West 271 312 7,800 2,500 Climbing Atlanta Center
Sun 12:13:00 PM 35.6163 -81.3183 323° Northwest  Level Estimated
Sun 12:13:24 PM 35.1153 -81.1722 297° West 282 325 10,000  Level Atlanta Center
Sun 12:13:41 PM 35.1242 -81.2047 288° West 288 331 10,200 1,325 Climbing Atlanta Center
Sun 12:14:00 PM 35.7168 -81.4111 323° Northwest  Level Estimated
Sun 12:14:41 PM 35.2061 -81.2250 349° North 333 383 11,700  Level Atlanta Center
Sun 12:15:00 PM 35.8172 -81.5042 323° Northwest  Level Estimated
Sun 12:15:41 PM 35.2911 -81.2042 11° North 349 402 13,700  Level Atlanta Center
Sun 12:16:41 PM 35.3514 -81.0978 55° Northeast 332 382 15,300 1,593 Climbing Atlanta Center
Sun 12:22:24 PM 35.8734 -81.4211 321° Northwest 419 482 24,400 1,544 Climbing FlightAware ADS-B (NZFP)
Sun 12:22:54 PM 35.9192 -81.4666 321° Northwest 426 490 24,900 1,180 Climbing FlightAware ADS-B (NZFP)
Sun 12:23:25 PM 35.9655 -81.5128 321° Northwest 428 493 25,600 991 Climbing FlightAware ADS-B (NZFP)
Sun 12:24:43 PM 36.0808 -81.6264 321° Northwest 431 496 26,700 771 Climbing Indianapolis Center
Sun 12:25:45 PM 36.1781 -81.7228 321° Northwest 440 506 27,400 927 Climbing Indianapolis Center
Sun 12:26:46 PM 36.2775 -81.8222 321° Northwest 454 522 28,600 1,122 Climbing Indianapolis Center
Sun 12:27:48 PM 36.3758 -81.9228 321° Northwest 454 522 29,700 1,161 Climbing Indianapolis Center
Sun 12:28:50 PM 36.4900 -82.0381 321° Northwest 454 522 31,000 1,161 Climbing Indianapolis Center
Sun 12:29:52 PM 36.5875 -82.1364 321° Northwest 454 522 32,100 1,113 Climbing Indianapolis Center
Sun 12:30:54 PM 36.6833 -82.2336 321° Northwest 450 518 33,300 616 Climbing Indianapolis Center
Sun 12:32:57 PM 36.8711 -82.4258 326° Northwest 441 507 34,000 227 Climbing Indianapolis Center
Sun 12:33:59 PM 36.9647 -82.5211 321° Northwest 441 507 34,000  Level Indianapolis Center
Sun 12:35:01 PM 37.0722 -82.6331 320° Northwest 439 505 34,000  Level Indianapolis Center
Sun 12:36:03 PM 37.1644 -82.7272 321° Northwest 436 502 34,000  Level Indianapolis Center
Sun 12:41:46 PM 37.6872 -83.2759 320° Northwest 415 478 34,000  Level FlightAware ADS-B
Sun 12:43:17 PM 37.8061 -83.4019 320° Northwest 416 479 34,000  Level Indianapolis Center
Sun 12:49:04 PM 38.3512 -83.9499 328° Northwest 432 497 34,000  Level FlightAware ADS-B
Sun 12:49:44 PM 38.4191 -84.0027 329° Northwest 434 499 34,000 86 Level FlightAware ADS-B
Sun 12:50:14 PM 38.4706 -84.0429 329° Northwest 434 499 34,100 100 Climbing FlightAware ADS-B
Sun 12:50:44 PM 38.5186 -84.0805 328° Northwest 435 501 34,100  Level FlightAware ADS-B
Sun 12:51:17 PM 38.5789 -84.1278 329° Northwest 434 499 34,100 -85 Level FlightAware ADS-B
Sun 12:51:55 PM 38.6440 -84.1791 328° Northwest 433 498 34,000 -87 Descending FlightAware ADS-B
Sun 12:52:26 PM 38.6960 -84.2198 328° Northwest 432 497 34,000  Level FlightAware ADS-B
Sun 12:53:06 PM 38.7655 -84.2745 328° Northwest 431 496 34,000  Level FlightAware ADS-B
Sun 12:53:36 PM 38.8157 -84.3141 328° Northwest 432 497 34,000  Level FlightAware ADS-B
Sun 12:54:06 PM 38.8646 -84.3527 328° Northwest 432 497 34,000  Level FlightAware ADS-B
Sun 12:54:45 PM 38.9331 -84.4070 328° Northwest 433 498 34,000 -405 Level FlightAware ADS-B
Sun 12:55:20 PM 38.9890 -84.4516 328° Northwest 432 497 33,500 -800 Descending FlightAware ADS-B
Sun 12:56:00 PM 38.8994 -84.3803 328° Northwest 432 497 33,000 -361 Descending FlightAware ADS-B (KCVG)
Sun 12:56:43 PM 39.1253 -84.5611 319° Northwest 433 498 33,000 -429 Level Indianapolis Center
Sun 12:57:24 PM 39.1237 -84.5589 328° Northwest 425 489 32,400 -774 Descending FlightAware ADS-B (KCVG)
Sun 12:57:45 PM 39.2347 -84.6472 329° Northwest 434 499 32,200 -873 Descending Indianapolis Center
Sun 12:58:19 PM 39.2929 -84.6943 328° Northwest 426 490 31,600 -968 Descending FlightAware ADS-B (KCVG)
Sun 12:58:47 PM 39.3342 -84.7283 328° Northwest 423 487 31,200 -1,000 Descending Indianapolis Center
Sun 12:58:55 PM 39.3545 -84.7439 328° Northwest 434 499 31,000 -194 Descending FlightAware ADS-B (KCVG)
Sun 12:59:49 PM 39.4372 -84.8106 328° Northwest 427 491 31,000 -876 Level Indianapolis Center
Sun 01:01:53 PM 39.6494 -84.9822 328° Northwest 429 494 28,400 -963 Descending Indianapolis Center
Sun 01:02:00 PM 39.6047 -85.0308 319° Northwest  Level Estimated
Sun 01:02:56 PM 39.7483 -85.0622 328° Northwest 424 488 28,000  Level Indianapolis Center
Sun 01:03:58 PM 39.8464 -85.1433 328° Northwest 424 488 27,900 -532 Descending Indianapolis Center
Sun 01:05:00 PM 39.9444 -85.2231 328° Northwest 423 487 26,900 -919 Descending Indianapolis Center
Sun 01:06:02 PM 40.0394 -85.3006 328° Northwest 413 475 26,000 -435 Descending Indianapolis Center
Sun 01:07:04 PM 40.1503 -85.3944 327° Northwest 404 465 26,000  Level Indianapolis Center
Sun 01:09:08 PM 40.3356 -85.5481 328° Northwest 401 461 26,000 -65 Level Indianapolis Center
Sun 01:10:10 PM 40.4289 -85.6250 328° Northwest 400 460 25,800 -441 Descending Indianapolis Center
Sun 01:15:56 PM 41.0102 -85.9076 340° North 381 438 23,000 -386 Descending FlightAware ADS-B
Sun 01:17:25 PM 41.1119 -86.0367 340° North 380 437 23,000 -961 Level Indianapolis Center
Sun 01:23:13 PM 41.4709 -86.7386 334° Northwest 369 425 16,000 -1,304 Descending FlightAware ADS-B
Sun 01:23:47 PM 41.5126 -86.7662 338° Northwest 368 423 14,700 -2,108 Descending FlightAware ADS-B
Sun 01:24:27 PM 41.5907 -86.7865 356° North 359 413 13,400 -1,917 Descending FlightAware ADS-B
Sun 01:24:59 PM 41.6380 -86.7914 356° North 354 407 12,400 -1,183 Descending FlightAware ADS-B
Sun 01:25:38 PM 41.7059 -86.7997 354° North 349 402 12,000 -202 Descending FlightAware ADS-B
Sun 01:26:28 PM 41.7865 -86.8117 351° North 347 399 12,100  Climbing FlightAware ADS-B
Sun 01:27:08 PM 41.8500 -86.8266 348° North 351 404 12,000 -118 Descending FlightAware ADS-B
Sun 01:27:19 PM 41.8667 -86.8343 334° Northwest 346 398 12,000 -545 Level FlightAware ADS-B (EGPH / EDI)
Sun 01:27:30 PM 41.8805 -86.8467 320° Northwest 341 392 11,800 -1,263 Descending FlightAware ADS-B
Sun 01:27:38 PM 41.8877 -86.8567 307° West 336 387 11,600 -1,846 Descending FlightAware ADS-B
Sun 01:28:09 PM 41.9120 -86.9175 296° West 331 381 10,600 -1,548 Descending FlightAware ADS-B
Sun 01:28:40 PM 41.9323 -86.9724 297° West 332 382 10,000 -370 Descending FlightAware ADS-B
Sun 01:29:30 PM 41.9639 -87.0567 297° West 329 379 10,100 77 Climbing FlightAware ADS-B
Sun 01:29:58 PM 41.9792 -87.1185 278° West 297 342 10,100 -240 Level FlightAware ADS-B
Sun 01:30:20 PM 41.9811 -87.1550 272° West 271 312 9,900 -1,171 Descending FlightAware ADS-B
Sun 01:30:39 PM 41.9816 -87.1878 271° West 266 306 9,300 -1,385 Descending FlightAware ADS-B
Sun 01:30:59 PM 41.9820 -87.2208 271° West 269 310 9,000 -439 Descending FlightAware ADS-B
Sun 01:31:20 PM 41.9821 -87.2514 270° West 272 313 9,000  Level FlightAware ADS-B
Sun 01:31:40 PM 41.9821 -87.2899 270° West 272 313 9,000 -308 Level FlightAware ADS-B
Sun 01:31:59 PM 41.9823 -87.3230 270° West 270 311 8,800 -769 Descending FlightAware ADS-B
Sun 01:32:19 PM 41.9825 -87.3556 270° West 267 307 8,500 -1,050 Descending FlightAware ADS-B
Sun 01:32:39 PM 41.9828 -87.3884 271° West 261 300 8,100 -1,650 Descending FlightAware ADS-B
Sun 01:32:59 PM 41.9830 -87.4208 270° West 259 298 7,400 -1,756 Descending FlightAware ADS-B
Sun 01:33:20 PM 41.9831 -87.4539 270° West 253 291 6,900 -1,317 Descending FlightAware ADS-B
Sun 01:33:40 PM 41.9832 -87.4836 270° West 232 267 6,500 -1,385 Descending FlightAware ADS-B
Sun 01:33:59 PM 41.9833 -87.5106 270° West 214 246 6,000 -1,050 Descending FlightAware ADS-B
Sun 01:35:00 PM 41.9834 -87.5810 270° West 168 193 5,100 -889 Descending FlightAware ADS-B
Sun 01:35:20 PM 41.9835 -87.6019 270° West 164 189 4,800 -923 Descending FlightAware ADS-B
Sun 01:35:39 PM 41.9836 -87.6217 270° West 169 194 4,500 -833 Descending FlightAware ADS-B
Sun 01:35:56 PM 41.9836 -87.6393 270° West 170 196 4,300 -811 Descending FlightAware ADS-B
Sun 01:36:16 PM 41.9837 -87.6600 270° West 172 198 4,000 -900 Descending FlightAware ADS-B
Sun 01:36:36 PM 41.9836 -87.6812 270° West 176 203 3,700 -1,050 Descending FlightAware ADS-B
Sun 01:36:56 PM 41.9836 -87.7038 271° West 176 203 3,300 -1,050 Descending FlightAware ADS-B
Sun 01:37:16 PM 41.9837 -87.7250 270° West 182 209 3,000 -878 Descending FlightAware ADS-B
Sun 01:37:37 PM 41.9838 -87.7499 270° West 182 209 2,700 -833 Descending FlightAware ADS-B
Sun 01:37:52 PM 41.9838 -87.7663 270° West 176 203 2,500 -1,000 Descending FlightAware ADS-B
Sun 01:38:19 PM 41.9839 -87.7961 270° West 162 186 2,000 -1,021 Descending FlightAware ADS-B
Sun 01:38:39 PM 41.9839 -87.8152 270° West 147 169 1,700 -750 Descending FlightAware ADS-B
Sun 01:38:59 PM 41.9839 -87.8340 270° West 145 167 1,500 -720 Descending FlightAware ADS-B
Sun 01:39:29 PM 41.9840 -87.8602 270° West 145 167 1,100 -720 Descending FlightAware ADS-B
Sun 01:39:49 PM 41.9839 -87.8784 270° West 143 165 900 -600 Descending FlightAware ADS-B

Login

Don't have an account? Register now (free) for customized features, flight alerts, and more!